Hauptseite
METAR-TAF:

METAR-TAF

Flughäfen :

Fliegerhorst Lechfeld

Lechfeld, Deutschland

Breite: 48-11N, Länge: 010-52E, Höhe: 555 m

Beobachtung

Neuester Wetterbericht von vor 58 Minuten, um 16:20 UTC
Wind 6 kt aus Süd/Südwest
Temperatur -2°C
Luftfeuchtigkeit 80%
Luftdruck 1023 hPa
Sichtweite 10 km oder mehr
Durchbrochene Bewölkung in der Höhe von 900 ft

METAR: ETSL 301620Z 20006KT 9999 BKN009 M02/M05 Q1023 GRN

Zeit: 18:18 (17:18 UTC)

Prognose

Neuester Wetterbericht von vor 3 Stunden und 2 Minuten, um 14:16 UTC
Gültige Prognose vom 30 um 15 UTC bis 30 um 24 UTC
Wind 5 kt aus West/Südwest
Sichtweite 10 km oder mehr
Durchbrochene Bewölkung in der Höhe von 1000 ft
Übergehend zu
vom 30 um 19 UTC bis 30 um 21 UTC
Wind 5 kt aus Süd/Südwest
Sichtweite: 6000 m
Durchbrochene Bewölkung in der Höhe von 500 ft

TAF: ETSL 301416Z 3015/3024 25005KT 9999 NSW BKN010 BECMG 3019/3021 20005KT 6000 NSW BKN005 BY ETGL

Wetterbeobachtungen und Prognosen von mehr als 4000 Flughäfen (METAR und TAF Bericht).

Die verfügbaren Stationen werden durch gelbe und rote Markierungen auf der Karte dargestellt.

Führen Sie die Maus auf sie, um den Namen der Station zu sehen.

Darauf klicken, um die Beobachtung von Wetterbeobachtungen und Prognosen zu sehen.

Um die Karte zu ändern : klicken Sie auf den grünen Tasten mit einem schwarzen Kreuz Zum Vergrößern, auf den grünen Button mit einem Gedankenstrich zu verkleinern, oder auf die grünen Pfeile für benachbarte Karten.


METAR-TAF: